Amethyst — UBSH3 — position and weather

sailwx.info

Track history (hours):
 
Tides and Currents Weather Stations Pressure Air Temp Water Temp Dewpoint Dewpoint Depression Visibility Wind Speed Wind Dir Waves Ship Positions

Amethyst

Last reported at 2017-Oct-17 01:00 UTC. Time now 2017-Oct-17 01:21 UTC.
Position N 60°10' E 027°36'.

Length 90 m; draft 6.5 m.

Type: Cargo ship. MMSI: 273358930.

Date/timePositionNaut miles runAvg speedWind from/ knotsBaromVisibWave heightAir tempDewpointWater temp
2017-Oct-17 01:00N 60°10' E 027°36'5 9.1
2017-Oct-17 00:30N 60°12' E 027°44'4 8.4
2017-Oct-17 00:00N 60°11' E 027°53'4 8.8
2017-Oct-16 23:30N 60°10' E 028°01'3 5.9
2017-Oct-16 23:00N 60°08' E 028°06'3 6.3
2017-Oct-16 22:30N 60°05' E 028°07'4 7.0
2017-Oct-16 22:00N 60°02' E 028°09'5 9.2
2017-Oct-16 21:30N 59°57' E 028°10'5 9.1
2017-Oct-16 21:00N 59°52' E 028°11'5 9.2
2017-Oct-16 20:30N 59°48' E 028°13'5 9.3
2017-Oct-16 20:00N 59°44' E 028°16'3 5.4
2017-Oct-16 19:30N 59°42' E 028°20'2 4.9
2017-Oct-16 19:00N 59°42' E 028°25'0 0.6
2017-Oct-16 18:30N 59°42' E 028°26'0 0.0
2017-Oct-16 17:52N 59°42' E 028°26'0 0.0
2017-Oct-16 17:04N 59°42' E 028°26'0 0.0
2017-Oct-16 16:52N 59°42' E 028°26'0 0.0
2017-Oct-16 16:22N 59°42' E 028°26'0 0.0
2017-Oct-16 15:55N 59°42' E 028°26'0 0.0
2017-Oct-16 15:25N 59°42' E 028°26'0 0.0
2017-Oct-16 14:55N 59°42' E 028°26'0 0.0
2017-Oct-16 13:55N 59°42' E 028°26'0 0.0
2017-Oct-16 13:25N 59°42' E 028°26'0 0.0
2017-Oct-16 12:58N 59°42' E 028°26'0 0.0
2017-Oct-16 12:28N 59°42' E 028°26'0 0.0
2017-Oct-16 11:58N 59°42' E 028°26'0 0.0
2017-Oct-16 11:28N 59°42' E 028°26'0 0.0
2017-Oct-16 10:58N 59°42' E 028°26'0 0.0
2017-Oct-16 10:28N 59°42' E 028°26'0 0.0
2017-Oct-16 09:58N 59°42' E 028°26'0 0.0
2017-Oct-16 09:28N 59°42' E 028°26'0 0.0
2017-Oct-16 08:58N 59°42' E 028°26'0 0.0
2017-Oct-16 08:28N 59°42' E 028°26'0 0.0
2017-Oct-16 07:58N 59°42' E 028°26'0 0.0
2017-Oct-16 07:28N 59°42' E 028°26'0 0.0
2017-Oct-16 06:58N 59°42' E 028°26'0 0.0
2017-Oct-16 06:28N 59°42' E 028°26'0 0.0
2017-Oct-16 05:58N 59°42' E 028°26'0 0.0
2017-Oct-16 05:25N 59°42' E 028°26'0 0.0
2017-Oct-16 04:58N 59°42' E 028°26'0 0.0
2017-Oct-16 04:25N 59°42' E 028°26'0 0.0
2017-Oct-16 03:58N 59°42' E 028°26'0 0.0
2017-Oct-16 03:28N 59°42' E 028°26'0 0.0
2017-Oct-16 02:55N 59°42' E 028°26'0 0.0
2017-Oct-16 02:28N 59°42' E 028°26'0 0.0
2017-Oct-16 01:58N 59°42' E 028°26'0 0.0
2017-Oct-16 01:28N 59°42' E 028°26'0 0.0
2017-Oct-16 00:58N 59°42' E 028°26'0 0.0
2017-Oct-16 00:28N 59°42' E 028°26'0 0.0
2017-Oct-15 23:55N 59°42' E 028°26'0 0.0
2017-Oct-15 23:25N 59°42' E 028°26'0 0.0
2017-Oct-15 22:58N 59°42' E 028°26'0 0.0
2017-Oct-15 22:28N 59°42' E 028°26'0 0.0
2017-Oct-15 21:58N 59°42' E 028°26'0 0.0
2017-Oct-15 21:28N 59°42' E 028°26'0 0.0
2017-Oct-15 20:58N 59°42' E 028°26'0 0.0
2017-Oct-15 20:28N 59°42' E 028°26'0 0.0
2017-Oct-15 19:58N 59°42' E 028°26'0 0.0
2017-Oct-15 19:28N 59°42' E 028°26'0 0.0
2017-Oct-15 18:58N 59°42' E 028°26'0 0.0
2017-Oct-15 18:28N 59°42' E 028°26'0 0.0
2017-Oct-15 17:58N 59°42' E 028°26'0 0.0
2017-Oct-15 17:28N 59°42' E 028°26'0 0.0
2017-Oct-15 16:58N 59°42' E 028°26'0 0.0
2017-Oct-15 16:28N 59°42' E 028°26'0 0.0
2017-Oct-15 16:00N 59°42' E 028°26'2 3.7
2017-Oct-15 15:30N 59°43' E 028°23'4 7.6
2017-Oct-15 15:00N 59°44' E 028°15'2 2.0
2017-Oct-15 13:55N 59°46' E 028°14'0 0.0
2017-Oct-15 13:28N 59°46' E 028°14'0 0.0
2017-Oct-15 12:52N 59°46' E 028°14'0 0.0
2017-Oct-15 12:25N 59°46' E 028°14'0 0.0
2017-Oct-15 11:55N 59°46' E 028°14'0 0.0
2017-Oct-15 11:25N 59°46' E 028°14'0 0.0
2017-Oct-15 10:55N 59°46' E 028°14'0 0.0
2017-Oct-15 10:25N 59°46' E 028°14'0 0.0
2017-Oct-15 09:55N 59°46' E 028°14'0 0.0
2017-Oct-15 09:25N 59°46' E 028°14'0 0.0
2017-Oct-15 08:58N 59°46' E 028°14'0 0.0
2017-Oct-15 08:28N 59°46' E 028°14'0 0.0
2017-Oct-15 07:58N 59°46' E 028°14'0 0.0
2017-Oct-15 07:28N 59°46' E 028°14'0 0.0
2017-Oct-15 06:58N 59°46' E 028°14'0 0.0
2017-Oct-15 06:28N 59°46' E 028°14'0 0.0
2017-Oct-15 05:58N 59°46' E 028°14'0 0.0
2017-Oct-15 05:28N 59°46' E 028°14'0 0.0
2017-Oct-15 04:58N 59°46' E 028°14'0 0.0
2017-Oct-15 04:28N 59°46' E 028°14'0 0.6
2017-Oct-15 03:59N 59°46' E 028°14'510.1
2017-Oct-15 03:30N 59°51' E 028°11'611.4
2017-Oct-15 02:59N 59°57' E 028°09'611.4
2017-Oct-15 02:30N 60°02' E 028°07'611.3
2017-Oct-15 02:00N 60°08' E 028°05'510.2
2017-Oct-15 01:30N 60°10' E 027°55'510.4
2017-Oct-15 01:00N 60°10' E 027°45'510.5
2017-Oct-15 00:30N 60°07' E 027°36'510.7
2017-Oct-15 00:00N 60°04' E 027°27'510.7
2017-Oct-14 23:30N 60°02' E 027°18'510.9
2017-Oct-14 23:00N 59°59' E 027°08'510.4
2017-Oct-14 22:30N 59°58' E 026°58'611.2
2017-Oct-14 22:00N 59°59' E 026°47'611.2
2017-Oct-14 21:30N 59°59' E 026°36'611.1
2017-Oct-14 21:00N 59°58' E 026°25'611.2
2017-Oct-14 20:30N 59°56' E 026°15'3111.3
2017-Oct-14 17:45N 59°48' E 025°15'311.2
2017-Oct-14 17:30N 59°48' E 025°09'611.6
2017-Oct-14 17:00N 59°46' E 024°58'611.4
2017-Oct-14 16:31N 59°45' E 024°47'611.1
2017-Oct-14 16:01N 59°44' E 024°36'611.0
2017-Oct-14 15:30N 59°43' E 024°26'611.2
2017-Oct-14 15:00N 59°41' E 024°15'2611.1
2017-Oct-14 12:40N 59°33' E 023°27'31010.1
2017-Oct-13 06:05N 55°57' E 016°28'1 9.3
2017-Oct-13 05:57N 55°57' E 016°26'4 9.3
2017-Oct-13 05:29N 55°55' E 016°19'5 9.7
2017-Oct-13 05:00N 55°53' E 016°12'5 9.9
2017-Oct-13 04:29N 55°50' E 016°04'510.1
2017-Oct-13 04:00N 55°48' E 015°56'510.2
2017-Oct-13 03:30N 55°46' E 015°48'510.3
2017-Oct-13 03:00N 55°43' E 015°40'510.3
2017-Oct-13 02:30N 55°41' E 015°32'510.2
2017-Oct-13 02:00N 55°38' E 015°24'510.5
2017-Oct-13 01:30N 55°36' E 015°16'710.5
2017-Oct-13 00:50N 55°32' E 015°05'410.5
2017-Oct-13 00:29N 55°31' E 014°59'510.4
2017-Oct-13 00:00N 55°28' E 014°51'610.2
2017-Oct-12 23:25N 55°25' E 014°43'410.3
2017-Oct-12 23:00N 55°22' E 014°38'610.1
2017-Oct-12 22:27N 55°18' E 014°31'610.1
2017-Oct-12 21:51N 55°13' E 014°24'410.2
2017-Oct-12 21:30N 55°11' E 014°20'4310.8
2017-Oct-12 17:29N 55°12' E 013°04'510.7
2017-Oct-12 16:59N 55°14' E 012°55'611.1
2017-Oct-12 16:29N 55°16' E 012°46'510.3
2017-Oct-12 16:00N 55°19' E 012°38'611.1
2017-Oct-12 15:30N 55°24' E 012°40'611.1
2017-Oct-12 15:00N 55°30' E 012°41'611.8
2017-Oct-12 14:30N 55°36' E 012°42'712.8
2017-Oct-12 13:59N 55°42' E 012°41'611.5
2017-Oct-12 13:29N 55°48' E 012°40'611.7
2017-Oct-12 13:00N 55°54' E 012°38'611.6
2017-Oct-12 12:30N 55°59' E 012°38'511.0
2017-Oct-12 12:01N 56°05' E 012°35'611.8
2017-Oct-12 11:31N 56°08' E 012°27'611.3
2017-Oct-12 11:00N 56°12' E 012°19'5710.6
2017-Oct-12 05:36N 57°05' E 011°39'110.8
2017-Oct-12 05:29N 57°06' E 011°38'610.6
2017-Oct-12 04:56N 57°11' E 011°34'410.5
2017-Oct-12 04:30N 57°15' E 011°32'510.5
2017-Oct-12 04:00N 57°20' E 011°28'510.2
2017-Oct-12 03:28N 57°25' E 011°25'5 9.9
2017-Oct-12 03:00N 57°29' E 011°19'510.2
2017-Oct-12 02:30N 57°32' E 011°11'610.5
2017-Oct-12 01:59N 57°35' E 011°03'510.4
2017-Oct-12 01:29N 57°38' E 010°56'510.6
2017-Oct-12 00:59N 57°40' E 010°46'4 8.6
2017-Oct-12 00:30N 57°40' E 010°38'0 0.1
2017-Oct-11 23:49N 57°40' E 010°38'0 0.0
2017-Oct-11 22:49N 57°40' E 010°38'0 0.0
2017-Oct-11 22:25N 57°40' E 010°38'0 0.0
2017-Oct-11 21:34N 57°40' E 010°38'0 0.0
2017-Oct-11 20:49N 57°40' E 010°38'0 0.0
2017-Oct-11 20:25N 57°40' E 010°38'0 0.0
2017-Oct-11 19:49N 57°40' E 010°38'0 0.0
2017-Oct-11 19:19N 57°40' E 010°38'0 0.0
2017-Oct-11 18:55N 57°40' E 010°38'0 0.0
2017-Oct-11 18:25N 57°40' E 010°38'0 0.0
2017-Oct-11 17:58N 57°40' E 010°38'0 0.0
2017-Oct-11 17:28N 57°40' E 010°38'0 0.0
2017-Oct-11 16:58N 57°40' E 010°38'46 2.6
2017-Oct-10 23:16N 58°26' E 010°49'310.5
2017-Oct-10 23:00N 58°29' E 010°48'610.9
2017-Oct-10 22:29N 58°34' E 010°47'611.3
2017-Oct-10 22:00N 58°40' E 010°46'611.5
2017-Oct-10 21:29N 58°46' E 010°44'611.8
2017-Oct-10 21:00N 58°51' E 010°43'611.7
2017-Oct-10 20:30N 58°57' E 010°41'611.3
2017-Oct-10 20:00N 59°02' E 010°36'5 9.4
2017-Oct-10 19:30N 59°07' E 010°34'510.6
2017-Oct-10 19:00N 59°12' E 010°37'511.2
2017-Oct-10 18:30N 59°18' E 010°36'611.3
2017-Oct-10 18:00N 59°23' E 010°33'2 4.7
2017-Oct-10 17:30N 59°25' E 010°30'0 0.0
2017-Oct-10 17:00N 59°25' E 010°30'0 0.0
2017-Oct-10 16:28N 59°25' E 010°30'0 0.0
2017-Oct-10 15:58N 59°25' E 010°30'0 0.0
2017-Oct-10 15:28N 59°25' E 010°30'0 0.0
2017-Oct-10 14:58N 59°25' E 010°30'0 0.0
2017-Oct-10 13:58N 59°25' E 010°30'0 0.0
2017-Oct-10 13:28N 59°25' E 010°30'0 0.0
2017-Oct-10 12:58N 59°25' E 010°30'0 0.0
2017-Oct-10 12:28N 59°25' E 010°30'0 0.0
2017-Oct-10 11:58N 59°25' E 010°30'0 0.0
2017-Oct-10 11:28N 59°25' E 010°30'0 0.0
2017-Oct-10 10:58N 59°25' E 010°30'0 0.0
2017-Oct-10 10:28N 59°25' E 010°30'0 0.0
2017-Oct-10 09:58N 59°25' E 010°30'0 0.0
2017-Oct-10 09:28N 59°25' E 010°30'0 0.0
2017-Oct-10 08:58N 59°25' E 010°30'0 0.0
2017-Oct-10 08:28N 59°25' E 010°30'0 0.0
2017-Oct-10 07:58N 59°25' E 010°30'0 0.0
2017-Oct-10 07:28N 59°25' E 010°30'0 0.0
2017-Oct-10 06:58N 59°25' E 010°30'0 0.0
2017-Oct-10 06:28N 59°25' E 010°30'0 0.0
2017-Oct-10 05:58N 59°25' E 010°30'0 0.0
2017-Oct-10 05:28N 59°25' E 010°30'0 0.0
2017-Oct-10 04:58N 59°25' E 010°30'0 0.0
2017-Oct-10 04:28N 59°25' E 010°30'0 0.0
2017-Oct-10 03:58N 59°25' E 010°30'0 0.0
2017-Oct-10 03:28N 59°25' E 010°30'0 0.0
2017-Oct-10 02:58N 59°25' E 010°30'0 0.0
2017-Oct-10 02:28N 59°25' E 010°30'0 0.0
2017-Oct-10 01:58N 59°25' E 010°30'0 0.0
2017-Oct-10 01:28N 59°25' E 010°30'0 0.0
2017-Oct-10 00:58N 59°25' E 010°30'0 0.0
2017-Oct-10 00:28N 59°25' E 010°30'0 0.0
2017-Oct-09 23:58N 59°25' E 010°30'0 0.0
2017-Oct-09 23:28N 59°25' E 010°30'0 0.0
2017-Oct-09 22:58N 59°25' E 010°30'0 0.1
2017-Oct-09 22:28N 59°25' E 010°30'0 0.1
2017-Oct-09 21:58N 59°25' E 010°30'0 0.0
2017-Oct-09 21:28N 59°25' E 010°30'0 0.0
2017-Oct-09 20:58N 59°25' E 010°30'0 0.0
2017-Oct-09 20:28N 59°25' E 010°30'0 0.0
2017-Oct-09 19:58N 59°25' E 010°30'0 0.0
2017-Oct-09 19:28N 59°25' E 010°30'0 0.0
2017-Oct-09 18:58N 59°25' E 010°30'0 0.0
2017-Oct-09 18:28N 59°25' E 010°30'0 0.0
2017-Oct-09 17:58N 59°25' E 010°30'0 0.0
2017-Oct-09 17:28N 59°25' E 010°30'0 0.0
2017-Oct-09 16:58N 59°25' E 010°30'0 0.0
2017-Oct-09 16:28N 59°25' E 010°30'0 0.0
2017-Oct-09 15:58N 59°25' E 010°30'0 0.0
2017-Oct-09 15:28N 59°25' E 010°30'0 0.0
2017-Oct-09 14:58N 59°25' E 010°30'0 0.1
2017-Oct-09 14:28N 59°25' E 010°30'0 0.0
2017-Oct-09 13:58N 59°25' E 010°30'0 0.0
2017-Oct-09 13:28N 59°25' E 010°30'0 0.0
2017-Oct-09 12:58N 59°25' E 010°30'0 0.0
2017-Oct-09 12:28N 59°25' E 010°30'0 0.0
2017-Oct-09 11:58N 59°25' E 010°30'0 0.0
2017-Oct-09 11:28N 59°25' E 010°30'0 0.0
2017-Oct-09 10:58N 59°25' E 010°30'0 0.0
2017-Oct-09 10:28N 59°25' E 010°30'0 0.0
2017-Oct-09 09:58N 59°25' E 010°30'0 0.0
2017-Oct-09 09:28N 59°25' E 010°30'0 0.0
2017-Oct-09 08:58N 59°25' E 010°30'0 0.0
2017-Oct-09 08:28N 59°25' E 010°30'0 0.0
2017-Oct-09 07:58N 59°25' E 010°30'0 0.0
2017-Oct-09 07:28N 59°25' E 010°30'0 0.0
2017-Oct-09 06:58N 59°25' E 010°30'0 0.0
2017-Oct-09 06:28N 59°25' E 010°30'0 0.0
2017-Oct-09 05:58N 59°25' E 010°30'0 0.0
2017-Oct-09 05:28N 59°25' E 010°30'0 0.0
2017-Oct-09 04:58N 59°25' E 010°30'0 0.0
2017-Oct-09 04:28N 59°25' E 010°30'0 0.0
2017-Oct-09 03:58N 59°25' E 010°30'0 0.0
2017-Oct-09 03:28N 59°25' E 010°30'0 0.0
2017-Oct-09 02:58N 59°25' E 010°30'0 0.0
2017-Oct-09 02:28N 59°25' E 010°30'0 0.0
2017-Oct-09 01:58N 59°25' E 010°30'0 0.0
2017-Oct-09 01:28N 59°25' E 010°30'0 0.0
2017-Oct-09 00:58N 59°25' E 010°30'0 0.0
2017-Oct-09 00:28N 59°25' E 010°30'0 0.0
2017-Oct-08 23:58N 59°25' E 010°30'0 0.0
2017-Oct-08 23:28N 59°25' E 010°30'0 0.0
2017-Oct-08 22:58N 59°25' E 010°30'0 0.1
2017-Oct-08 22:30N 59°25' E 010°30'2 3.7
2017-Oct-08 22:00N 59°23' E 010°30'5 9.2
2017-Oct-08 21:30N 59°19' E 010°33'5 9.4
2017-Oct-08 21:00N 59°14' E 010°35'5 9.3
2017-Oct-08 20:30N 59°10' E 010°37'5 9.2
2017-Oct-08 20:00N 59°05' E 010°35'510.1
2017-Oct-08 19:30N 59°00' E 010°33'510.7
2017-Oct-08 19:00N 58°56' E 010°28'510.2
2017-Oct-08 18:30N 58°51' E 010°23'510.7
2017-Oct-08 18:00N 58°47' E 010°17'510.6
2017-Oct-08 17:30N 58°42' E 010°11'5 9.6
2017-Oct-08 17:00N 58°38' E 010°06'236 9.7
2017-Oct-07 16:36N 55°21' E 006°11'1 9.5
2017-Oct-07 16:29N 55°20' E 006°10'5 9.6
2017-Oct-07 15:59N 55°16' E 006°05'5 9.6
2017-Oct-07 15:30N 55°12' E 006°01'5 9.6
2017-Oct-07 15:00N 55°08' E 005°56'5 9.5
2017-Oct-07 14:30N 55°04' E 005°52'5 9.6
2017-Oct-07 13:58N 54°59' E 005°47'5 9.6
2017-Oct-07 13:30N 54°55' E 005°43'5 9.6
2017-Oct-07 12:59N 54°51' E 005°38'5 9.5
2017-Oct-07 12:29N 54°47' E 005°34'5 9.6
2017-Oct-07 12:00N 54°44' E 005°29'5 9.5
2017-Oct-07 11:30N 54°39' E 005°25'5 9.6
2017-Oct-07 11:00N 54°35' E 005°20'5 9.6
2017-Oct-07 10:30N 54°31' E 005°16'5 9.7
2017-Oct-07 09:59N 54°27' E 005°11'5 9.8
2017-Oct-07 09:30N 54°23' E 005°07'  
Track history (hours):
 
Tides and Currents Weather Stations Pressure Air Temp Water Temp Dewpoint Dewpoint Depression Visibility Wind Speed Wind Dir Waves Ship Positions

Amethyst

Last reported at 2017-Oct-17 01:00 UTC. Time now 2017-Oct-17 01:21 UTC.
Position N 60°10' E 027°36'.

Length 90 m; draft 6.5 m.

Type: Cargo ship. MMSI: 273358930.

Date/timePositionNaut miles runAvg speedWind from/ knotsBaromVisibWave heightAir tempDewpointWater temp
2017-Oct-17 01:00N 60°10' E 027°36'5 9.1
2017-Oct-17 00:30N 60°12' E 027°44'4 8.4
2017-Oct-17 00:00N 60°11' E 027°53'4 8.8
2017-Oct-16 23:30N 60°10' E 028°01'3 5.9
2017-Oct-16 23:00N 60°08' E 028°06'3 6.3
2017-Oct-16 22:30N 60°05' E 028°07'4 7.0
2017-Oct-16 22:00N 60°02' E 028°09'5 9.2
2017-Oct-16 21:30N 59°57' E 028°10'5 9.1
2017-Oct-16 21:00N 59°52' E 028°11'5 9.2
2017-Oct-16 20:30N 59°48' E 028°13'5 9.3
2017-Oct-16 20:00N 59°44' E 028°16'3 5.4
2017-Oct-16 19:30N 59°42' E 028°20'2 4.9
2017-Oct-16 19:00N 59°42' E 028°25'0 0.6
2017-Oct-16 18:30N 59°42' E 028°26'0 0.0
2017-Oct-16 17:52N 59°42' E 028°26'0 0.0
2017-Oct-16 17:04N 59°42' E 028°26'0 0.0
2017-Oct-16 16:52N 59°42' E 028°26'0 0.0
2017-Oct-16 16:22N 59°42' E 028°26'0 0.0
2017-Oct-16 15:55N 59°42' E 028°26'0 0.0
2017-Oct-16 15:25N 59°42' E 028°26'0 0.0
2017-Oct-16 14:55N 59°42' E 028°26'0 0.0
2017-Oct-16 13:55N 59°42' E 028°26'0 0.0
2017-Oct-16 13:25N 59°42' E 028°26'0 0.0
2017-Oct-16 12:58N 59°42' E 028°26'0 0.0
2017-Oct-16 12:28N 59°42' E 028°26'0 0.0
2017-Oct-16 11:58N 59°42' E 028°26'0 0.0
2017-Oct-16 11:28N 59°42' E 028°26'0 0.0
2017-Oct-16 10:58N 59°42' E 028°26'0 0.0
2017-Oct-16 10:28N 59°42' E 028°26'0 0.0
2017-Oct-16 09:58N 59°42' E 028°26'0 0.0
2017-Oct-16 09:28N 59°42' E 028°26'0 0.0
2017-Oct-16 08:58N 59°42' E 028°26'0 0.0
2017-Oct-16 08:28N 59°42' E 028°26'0 0.0
2017-Oct-16 07:58N 59°42' E 028°26'0 0.0
2017-Oct-16 07:28N 59°42' E 028°26'0 0.0
2017-Oct-16 06:58N 59°42' E 028°26'0 0.0
2017-Oct-16 06:28N 59°42' E 028°26'0 0.0
2017-Oct-16 05:58N 59°42' E 028°26'0 0.0
2017-Oct-16 05:25N 59°42' E 028°26'0 0.0
2017-Oct-16 04:58N 59°42' E 028°26'0 0.0
2017-Oct-16 04:25N 59°42' E 028°26'0 0.0
2017-Oct-16 03:58N 59°42' E 028°26'0 0.0
2017-Oct-16 03:28N 59°42' E 028°26'0 0.0
2017-Oct-16 02:55N 59°42' E 028°26'0 0.0
2017-Oct-16 02:28N 59°42' E 028°26'0 0.0
2017-Oct-16 01:58N 59°42' E 028°26'0 0.0
2017-Oct-16 01:28N 59°42' E 028°26'0 0.0
2017-Oct-16 00:58N 59°42' E 028°26'0 0.0
2017-Oct-16 00:28N 59°42' E 028°26'0 0.0
2017-Oct-15 23:55N 59°42' E 028°26'0 0.0
2017-Oct-15 23:25N 59°42' E 028°26'0 0.0
2017-Oct-15 22:58N 59°42' E 028°26'0 0.0
2017-Oct-15 22:28N 59°42' E 028°26'0 0.0
2017-Oct-15 21:58N 59°42' E 028°26'0 0.0
2017-Oct-15 21:28N 59°42' E 028°26'0 0.0
2017-Oct-15 20:58N 59°42' E 028°26'0 0.0
2017-Oct-15 20:28N 59°42' E 028°26'0 0.0
2017-Oct-15 19:58N 59°42' E 028°26'0 0.0
2017-Oct-15 19:28N 59°42' E 028°26'0 0.0
2017-Oct-15 18:58N 59°42' E 028°26'0 0.0
2017-Oct-15 18:28N 59°42' E 028°26'0 0.0
2017-Oct-15 17:58N 59°42' E 028°26'0 0.0
2017-Oct-15 17:28N 59°42' E 028°26'0 0.0
2017-Oct-15 16:58N 59°42' E 028°26'0 0.0
2017-Oct-15 16:28N 59°42' E 028°26'0 0.0
2017-Oct-15 16:00N 59°42' E 028°26'2 3.7
2017-Oct-15 15:30N 59°43' E 028°23'4 7.6
2017-Oct-15 15:00N 59°44' E 028°15'2 2.0
2017-Oct-15 13:55N 59°46' E 028°14'0 0.0
2017-Oct-15 13:28N 59°46' E 028°14'0 0.0
2017-Oct-15 12:52N 59°46' E 028°14'0 0.0
2017-Oct-15 12:25N 59°46' E 028°14'0 0.0
2017-Oct-15 11:55N 59°46' E 028°14'0 0.0
2017-Oct-15 11:25N 59°46' E 028°14'0 0.0
2017-Oct-15 10:55N 59°46' E 028°14'0 0.0
2017-Oct-15 10:25N 59°46' E 028°14'0 0.0
2017-Oct-15 09:55N 59°46' E 028°14'0 0.0
2017-Oct-15 09:25N 59°46' E 028°14'0 0.0
2017-Oct-15 08:58N 59°46' E 028°14'0 0.0
2017-Oct-15 08:28N 59°46' E 028°14'0 0.0
2017-Oct-15 07:58N 59°46' E 028°14'0 0.0
2017-Oct-15 07:28N 59°46' E 028°14'0 0.0
2017-Oct-15 06:58N 59°46' E 028°14'0 0.0
2017-Oct-15 06:28N 59°46' E 028°14'0 0.0
2017-Oct-15 05:58N 59°46' E 028°14'0 0.0
2017-Oct-15 05:28N 59°46' E 028°14'0 0.0
2017-Oct-15 04:58N 59°46' E 028°14'0 0.0
2017-Oct-15 04:28N 59°46' E 028°14'0 0.6
2017-Oct-15 03:59N 59°46' E 028°14'510.1
2017-Oct-15 03:30N 59°51' E 028°11'611.4
2017-Oct-15 02:59N 59°57' E 028°09'611.4
2017-Oct-15 02:30N 60°02' E 028°07'611.3
2017-Oct-15 02:00N 60°08' E 028°05'510.2
2017-Oct-15 01:30N 60°10' E 027°55'510.4
2017-Oct-15 01:00N 60°10' E 027°45'510.5
2017-Oct-15 00:30N 60°07' E 027°36'510.7
2017-Oct-15 00:00N 60°04' E 027°27'510.7
2017-Oct-14 23:30N 60°02' E 027°18'510.9
2017-Oct-14 23:00N 59°59' E 027°08'510.4
2017-Oct-14 22:30N 59°58' E 026°58'611.2
2017-Oct-14 22:00N 59°59' E 026°47'611.2
2017-Oct-14 21:30N 59°59' E 026°36'611.1
2017-Oct-14 21:00N 59°58' E 026°25'611.2
2017-Oct-14 20:30N 59°56' E 026°15'3111.3
2017-Oct-14 17:45N 59°48' E 025°15'311.2
2017-Oct-14 17:30N 59°48' E 025°09'611.6
2017-Oct-14 17:00N 59°46' E 024°58'611.4
2017-Oct-14 16:31N 59°45' E 024°47'611.1
2017-Oct-14 16:01N 59°44' E 024°36'611.0
2017-Oct-14 15:30N 59°43' E 024°26'611.2
2017-Oct-14 15:00N 59°41' E 024°15'2611.1
2017-Oct-14 12:40N 59°33' E 023°27'31010.1
2017-Oct-13 06:05N 55°57' E 016°28'1 9.3
2017-Oct-13 05:57N 55°57' E 016°26'4 9.3
2017-Oct-13 05:29N 55°55' E 016°19'5 9.7
2017-Oct-13 05:00N 55°53' E 016°12'5 9.9
2017-Oct-13 04:29N 55°50' E 016°04'510.1
2017-Oct-13 04:00N 55°48' E 015°56'510.2
2017-Oct-13 03:30N 55°46' E 015°48'510.3
2017-Oct-13 03:00N 55°43' E 015°40'510.3
2017-Oct-13 02:30N 55°41' E 015°32'510.2
2017-Oct-13 02:00N 55°38' E 015°24'510.5
2017-Oct-13 01:30N 55°36' E 015°16'710.5
2017-Oct-13 00:50N 55°32' E 015°05'410.5
2017-Oct-13 00:29N 55°31' E 014°59'510.4
2017-Oct-13 00:00N 55°28' E 014°51'610.2
2017-Oct-12 23:25N 55°25' E 014°43'410.3
2017-Oct-12 23:00N 55°22' E 014°38'610.1
2017-Oct-12 22:27N 55°18' E 014°31'610.1
2017-Oct-12 21:51N 55°13' E 014°24'410.2
2017-Oct-12 21:30N 55°11' E 014°20'4310.8
2017-Oct-12 17:29N 55°12' E 013°04'510.7
2017-Oct-12 16:59N 55°14' E 012°55'611.1
2017-Oct-12 16:29N 55°16' E 012°46'510.3
2017-Oct-12 16:00N 55°19' E 012°38'611.1
2017-Oct-12 15:30N 55°24' E 012°40'611.1
2017-Oct-12 15:00N 55°30' E 012°41'611.8
2017-Oct-12 14:30N 55°36' E 012°42'712.8
2017-Oct-12 13:59N 55°42' E 012°41'611.5
2017-Oct-12 13:29N 55°48' E 012°40'611.7
2017-Oct-12 13:00N 55°54' E 012°38'611.6
2017-Oct-12 12:30N 55°59' E 012°38'511.0
2017-Oct-12 12:01N 56°05' E 012°35'611.8
2017-Oct-12 11:31N 56°08' E 012°27'611.3
2017-Oct-12 11:00N 56°12' E 012°19'5710.6
2017-Oct-12 05:36N 57°05' E 011°39'110.8
2017-Oct-12 05:29N 57°06' E 011°38'610.6
2017-Oct-12 04:56N 57°11' E 011°34'410.5
2017-Oct-12 04:30N 57°15' E 011°32'510.5
2017-Oct-12 04:00N 57°20' E 011°28'510.2
2017-Oct-12 03:28N 57°25' E 011°25'5 9.9
2017-Oct-12 03:00N 57°29' E 011°19'510.2
2017-Oct-12 02:30N 57°32' E 011°11'610.5
2017-Oct-12 01:59N 57°35' E 011°03'510.4
2017-Oct-12 01:29N 57°38' E 010°56'510.6
2017-Oct-12 00:59N 57°40' E 010°46'4 8.6
2017-Oct-12 00:30N 57°40' E 010°38'0 0.1
2017-Oct-11 23:49N 57°40' E 010°38'0 0.0
2017-Oct-11 22:49N 57°40' E 010°38'0 0.0
2017-Oct-11 22:25N 57°40' E 010°38'0 0.0
2017-Oct-11 21:34N 57°40' E 010°38'0 0.0
2017-Oct-11 20:49N 57°40' E 010°38'0 0.0
2017-Oct-11 20:25N 57°40' E 010°38'0 0.0
2017-Oct-11 19:49N 57°40' E 010°38'0 0.0
2017-Oct-11 19:19N 57°40' E 010°38'0 0.0
2017-Oct-11 18:55N 57°40' E 010°38'0 0.0
2017-Oct-11 18:25N 57°40' E 010°38'0 0.0
2017-Oct-11 17:58N 57°40' E 010°38'0 0.0
2017-Oct-11 17:28N 57°40' E 010°38'0 0.0
2017-Oct-11 16:58N 57°40' E 010°38'46 2.6
2017-Oct-10 23:16N 58°26' E 010°49'310.5
2017-Oct-10 23:00N 58°29' E 010°48'610.9
2017-Oct-10 22:29N 58°34' E 010°47'611.3
2017-Oct-10 22:00N 58°40' E 010°46'611.5
2017-Oct-10 21:29N 58°46' E 010°44'611.8
2017-Oct-10 21:00N 58°51' E 010°43'611.7
2017-Oct-10 20:30N 58°57' E 010°41'611.3
2017-Oct-10 20:00N 59°02' E 010°36'5 9.4
2017-Oct-10 19:30N 59°07' E 010°34'510.6
2017-Oct-10 19:00N 59°12' E 010°37'511.2
2017-Oct-10 18:30N 59°18' E 010°36'611.3
2017-Oct-10 18:00N 59°23' E 010°33'2 4.7
2017-Oct-10 17:30N 59°25' E 010°30'0 0.0
2017-Oct-10 17:00N 59°25' E 010°30'0 0.0
2017-Oct-10 16:28N 59°25' E 010°30'0 0.0
2017-Oct-10 15:58N 59°25' E 010°30'0 0.0
2017-Oct-10 15:28N 59°25' E 010°30'0 0.0
2017-Oct-10 14:58N 59°25' E 010°30'0 0.0
2017-Oct-10 13:58N 59°25' E 010°30'0 0.0
2017-Oct-10 13:28N 59°25' E 010°30'0 0.0
2017-Oct-10 12:58N 59°25' E 010°30'0 0.0
2017-Oct-10 12:28N 59°25' E 010°30'0 0.0
2017-Oct-10 11:58N 59°25' E 010°30'0 0.0
2017-Oct-10 11:28N 59°25' E 010°30'0 0.0
2017-Oct-10 10:58N 59°25' E 010°30'0 0.0
2017-Oct-10 10:28N 59°25' E 010°30'0 0.0
2017-Oct-10 09:58N 59°25' E 010°30'0 0.0
2017-Oct-10 09:28N 59°25' E 010°30'0 0.0
2017-Oct-10 08:58N 59°25' E 010°30'0 0.0
2017-Oct-10 08:28N 59°25' E 010°30'0 0.0
2017-Oct-10 07:58N 59°25' E 010°30'0 0.0
2017-Oct-10 07:28N 59°25' E 010°30'0 0.0
2017-Oct-10 06:58N 59°25' E 010°30'0 0.0
2017-Oct-10 06:28N 59°25' E 010°30'0 0.0
2017-Oct-10 05:58N 59°25' E 010°30'0 0.0
2017-Oct-10 05:28N 59°25' E 010°30'0 0.0
2017-Oct-10 04:58N 59°25' E 010°30'0 0.0
2017-Oct-10 04:28N 59°25' E 010°30'0 0.0
2017-Oct-10 03:58N 59°25' E 010°30'0 0.0
2017-Oct-10 03:28N 59°25' E 010°30'0 0.0
2017-Oct-10 02:58N 59°25' E 010°30'0 0.0
2017-Oct-10 02:28N 59°25' E 010°30'0 0.0
2017-Oct-10 01:58N 59°25' E 010°30'0 0.0
2017-Oct-10 01:28N 59°25' E 010°30'0 0.0
2017-Oct-10 00:58N 59°25' E 010°30'0 0.0
2017-Oct-10 00:28N 59°25' E 010°30'0 0.0
2017-Oct-09 23:58N 59°25' E 010°30'0 0.0
2017-Oct-09 23:28N 59°25' E 010°30'0 0.0
2017-Oct-09 22:58N 59°25' E 010°30'0 0.1
2017-Oct-09 22:28N 59°25' E 010°30'0 0.1
2017-Oct-09 21:58N 59°25' E 010°30'0 0.0
2017-Oct-09 21:28N 59°25' E 010°30'0 0.0
2017-Oct-09 20:58N 59°25' E 010°30'0 0.0
2017-Oct-09 20:28N 59°25' E 010°30'0 0.0
2017-Oct-09 19:58N 59°25' E 010°30'0 0.0
2017-Oct-09 19:28N 59°25' E 010°30'0 0.0
2017-Oct-09 18:58N 59°25' E 010°30'0 0.0
2017-Oct-09 18:28N 59°25' E 010°30'0 0.0
2017-Oct-09 17:58N 59°25' E 010°30'0 0.0
2017-Oct-09 17:28N 59°25' E 010°30'0 0.0
2017-Oct-09 16:58N 59°25' E 010°30'0 0.0
2017-Oct-09 16:28N 59°25' E 010°30'0 0.0
2017-Oct-09 15:58N 59°25' E 010°30'0 0.0
2017-Oct-09 15:28N 59°25' E 010°30'0 0.0
2017-Oct-09 14:58N 59°25' E 010°30'0 0.1
2017-Oct-09 14:28N 59°25' E 010°30'0 0.0
2017-Oct-09 13:58N 59°25' E 010°30'0 0.0
2017-Oct-09 13:28N 59°25' E 010°30'0 0.0
2017-Oct-09 12:58N 59°25' E 010°30'0 0.0
2017-Oct-09 12:28N 59°25' E 010°30'0 0.0
2017-Oct-09 11:58N 59°25' E 010°30'0 0.0
2017-Oct-09 11:28N 59°25' E 010°30'0 0.0
2017-Oct-09 10:58N 59°25' E 010°30'0 0.0
2017-Oct-09 10:28N 59°25' E 010°30'0 0.0
2017-Oct-09 09:58N 59°25' E 010°30'0 0.0
2017-Oct-09 09:28N 59°25' E 010°30'0 0.0
2017-Oct-09 08:58N 59°25' E 010°30'0 0.0
2017-Oct-09 08:28N 59°25' E 010°30'0 0.0
2017-Oct-09 07:58N 59°25' E 010°30'0 0.0
2017-Oct-09 07:28N 59°25' E 010°30'0 0.0
2017-Oct-09 06:58N 59°25' E 010°30'0 0.0
2017-Oct-09 06:28N 59°25' E 010°30'0 0.0
2017-Oct-09 05:58N 59°25' E 010°30'0 0.0
2017-Oct-09 05:28N 59°25' E 010°30'0 0.0
2017-Oct-09 04:58N 59°25' E 010°30'0 0.0
2017-Oct-09 04:28N 59°25' E 010°30'0 0.0
2017-Oct-09 03:58N 59°25' E 010°30'0 0.0
2017-Oct-09 03:28N 59°25' E 010°30'0 0.0
2017-Oct-09 02:58N 59°25' E 010°30'0 0.0
2017-Oct-09 02:28N 59°25' E 010°30'0 0.0
2017-Oct-09 01:58N 59°25' E 010°30'0 0.0
2017-Oct-09 01:28N 59°25' E 010°30'0 0.0
2017-Oct-09 00:58N 59°25' E 010°30'0 0.0
2017-Oct-09 00:28N 59°25' E 010°30'0 0.0
2017-Oct-08 23:58N 59°25' E 010°30'0 0.0
2017-Oct-08 23:28N 59°25' E 010°30'0 0.0
2017-Oct-08 22:58N 59°25' E 010°30'0 0.1
2017-Oct-08 22:30N 59°25' E 010°30'2 3.7
2017-Oct-08 22:00N 59°23' E 010°30'5 9.2
2017-Oct-08 21:30N 59°19' E 010°33'5 9.4
2017-Oct-08 21:00N 59°14' E 010°35'5 9.3
2017-Oct-08 20:30N 59°10' E 010°37'5 9.2
2017-Oct-08 20:00N 59°05' E 010°35'510.1
2017-Oct-08 19:30N 59°00' E 010°33'510.7
2017-Oct-08 19:00N 58°56' E 010°28'510.2
2017-Oct-08 18:30N 58°51' E 010°23'510.7
2017-Oct-08 18:00N 58°47' E 010°17'510.6
2017-Oct-08 17:30N 58°42' E 010°11'5 9.6
2017-Oct-08 17:00N 58°38' E 010°06'236 9.7
2017-Oct-07 16:36N 55°21' E 006°11'1 9.5
2017-Oct-07 16:29N 55°20' E 006°10'5 9.6
2017-Oct-07 15:59N 55°16' E 006°05'5 9.6
2017-Oct-07 15:30N 55°12' E 006°01'5 9.6
2017-Oct-07 15:00N 55°08' E 005°56'5 9.5
2017-Oct-07 14:30N 55°04' E 005°52'5 9.6
2017-Oct-07 13:58N 54°59' E 005°47'5 9.6
2017-Oct-07 13:30N 54°55' E 005°43'5 9.6
2017-Oct-07 12:59N 54°51' E 005°38'5 9.5
2017-Oct-07 12:29N 54°47' E 005°34'5 9.6
2017-Oct-07 12:00N 54°44' E 005°29'5 9.5
2017-Oct-07 11:30N 54°39' E 005°25'5 9.6
2017-Oct-07 11:00N 54°35' E 005°20'5 9.6
2017-Oct-07 10:30N 54°31' E 005°16'5 9.7
2017-Oct-07 09:59N 54°27' E 005°11'5 9.8
2017-Oct-07 09:30N 54°23' E 005°07'  

Dump ship's entire track history